Time;durP1;ratioP1;P1;durP2;ratioP2;P2;SDS_P1;SDS_P2;PMS_P1;PMS_P2;Temp;Humidity;BMP_temperature;BMP_pressure;BME280_temperature;BME280_humidity;BME280_pressure;Samples;Min_cycle;Max_cycle;Signal;HPM_P1;HPM_P2
2021/05/16 00:00:35;;;;;;;10.30;7.07;;;11.30;96.40;;;;;;5096369;28;20077;-69
2021/05/16 00:03:01;;;;;;;7.70;6.55;;;11.40;96.50;;;;;;5097087;28;20044;-69
2021/05/16 00:05:29;;;;;;;8.82;6.85;;;11.30;96.50;;;;;;5096769;28;20096;-69
2021/05/16 00:07:56;;;;;;;8.05;6.55;;;11.30;96.50;;;;;;5097231;28;20043;-69
2021/05/16 00:10:24;;;;;;;8.13;5.82;;;11.30;96.50;;;;;;5096499;28;20047;-69
2021/05/16 00:12:54;;;;;;;7.70;6.30;;;11.30;96.50;;;;;;5096760;28;20459;-69
2021/05/16 00:15:22;;;;;;;7.90;6.38;;;11.40;96.60;;;;;;5096592;28;20040;-69
2021/05/16 00:17:49;;;;;;;7.72;6.50;;;11.40;96.60;;;;;;5096517;28;20471;-69
2021/05/16 00:20:18;;;;;;;9.02;7.38;;;11.30;96.60;;;;;;5095980;28;20089;-69
2021/05/16 00:22:44;;;;;;;10.32;6.82;;;11.30;96.70;;;;;;5096684;28;20502;-69
2021/05/16 00:25:14;;;;;;;8.07;6.35;;;11.30;96.70;;;;;;5097034;28;20036;-69
2021/05/16 00:27:41;;;;;;;10.07;6.93;;;11.30;96.80;;;;;;5096429;28;20039;-69
2021/05/16 00:30:10;;;;;;;8.52;6.95;;;11.30;96.80;;;;;;5095894;28;20111;-69
2021/05/16 00:32:36;;;;;;;8.07;6.55;;;11.30;96.90;;;;;;5096048;28;20542;-69
2021/05/16 00:35:04;;;;;;;9.50;7.38;;;11.30;96.90;;;;;;5096273;28;20082;-69
2021/05/16 00:37:30;;;;;;;8.50;6.45;;;11.20;96.90;;;;;;5096241;28;20475;-69
2021/05/16 00:39:57;;;;;;;9.55;7.43;;;11.30;97.00;;;;;;5095627;28;20044;-69
2021/05/16 00:42:23;;;;;;;8.20;7.35;;;11.30;97.00;;;;;;5096061;28;20123;-69
2021/05/16 00:45:10;;;;;;;8.13;7.22;;;11.30;97.00;;;;;;5095521;28;20036;-69
2021/05/16 00:47:37;;;;;;;8.70;7.22;;;11.30;97.00;;;;;;5096166;28;20166;-69
2021/05/16 00:50:09;;;;;;;8.55;6.93;;;11.30;96.90;;;;;;5095488;28;20406;-69
2021/05/16 00:52:38;;;;;;;9.80;7.20;;;11.30;96.90;;;;;;5095975;28;20040;-69
2021/05/16 00:55:06;;;;;;;9.05;7.30;;;11.30;96.90;;;;;;5111873;28;20036;-69
2021/05/16 00:57:32;;;;;;;8.80;7.47;;;11.30;96.90;;;;;;5096053;28;20036;-69
2021/05/16 00:59:58;;;;;;;7.88;6.78;;;11.30;96.80;;;;;;5095222;28;20044;-69
2021/05/16 01:02:24;;;;;;;7.78;6.88;;;11.30;97.00;;;;;;5095713;28;20047;-69
2021/05/16 01:04:51;;;;;;;8.65;7.40;;;11.30;96.90;;;;;;5096249;28;20114;-69
2021/05/16 01:07:18;;;;;;;8.50;7.70;;;11.30;97.00;;;;;;5095538;28;20096;-69
2021/05/16 01:09:44;;;;;;;8.82;7.75;;;11.20;97.00;;;;;;5095293;28;20032;-69
2021/05/16 01:12:11;;;;;;;8.25;6.85;;;11.20;97.00;;;;;;5095579;28;20110;-69
2021/05/16 01:14:41;;;;;;;9.45;7.57;;;11.20;97.00;;;;;;5095535;28;20173;-69
2021/05/16 01:17:07;;;;;;;9.82;8.10;;;11.20;96.90;;;;;;5095868;28;20036;-69
2021/05/16 01:19:33;;;;;;;12.65;8.68;;;11.20;96.90;;;;;;5111174;28;20040;-69
2021/05/16 01:22:00;;;;;;;8.77;7.82;;;11.30;97.10;;;;;;5095202;28;20046;-69
2021/05/16 01:24:28;;;;;;;11.15;7.63;;;11.20;97.30;;;;;;5095167;28;20499;-69
2021/05/16 01:26:54;;;;;;;11.55;9.30;;;11.20;97.10;;;;;;5095648;28;20112;-69
2021/05/16 01:29:21;;;;;;;9.95;8.18;;;11.20;97.10;;;;;;5094670;28;20032;-69
2021/05/16 01:31:47;;;;;;;11.45;9.45;;;11.30;97.20;;;;;;5095343;28;20509;-69
2021/05/16 01:34:13;;;;;;;10.50;9.30;;;11.20;97.20;;;;;;5094958;28;20043;-69
2021/05/16 01:36:39;;;;;;;11.05;9.85;;;11.30;97.20;;;;;;5094995;28;20036;-69
2021/05/16 01:39:12;;;;;;;11.43;10.23;;;11.30;97.10;;;;;;5094673;28;20513;-69
2021/05/16 01:41:38;;;;;;;12.40;10.35;;;11.30;97.10;;;;;;5094771;28;20040;-69
2021/05/16 01:44:05;;;;;;;12.30;10.07;;;11.30;97.00;;;;;;5111134;28;20032;-69
2021/05/16 01:46:31;;;;;;;11.85;9.60;;;11.30;97.00;;;;;;5094739;28;20105;-69
2021/05/16 01:48:57;;;;;;;11.73;10.18;;;11.20;96.90;;;;;;5094576;28;20114;-69
2021/05/16 01:51:24;;;;;;;13.38;11.07;;;11.30;96.90;;;;;;5094638;28;20044;-69
2021/05/16 01:53:49;;;;;;;14.38;10.73;;;11.30;97.00;;;;;;5094745;28;20047;-69
2021/05/16 01:56:27;;;;;;;12.95;10.60;;;11.30;97.00;;;;;;5093924;28;20039;-69
2021/05/16 01:58:54;;;;;;;13.10;10.48;;;11.30;97.10;;;;;;5094455;28;20139;-69
2021/05/16 02:01:20;;;;;;;12.73;11.38;;;11.30;97.10;;;;;;5094405;28;20071;-69
2021/05/16 02:03:47;;;;;;;12.55;10.73;;;11.20;97.20;;;;;;5094711;28;20047;-69
2021/05/16 02:06:14;;;;;;;12.55;11.27;;;11.20;97.30;;;;;;5094774;28;20090;-69
2021/05/16 02:08:42;;;;;;;13.90;12.27;;;11.20;97.20;;;;;;5093987;28;20035;-69
2021/05/16 02:11:08;;;;;;;12.98;11.57;;;11.20;97.20;;;;;;5094115;28;20066;-69
2021/05/16 02:13:41;;;;;;;14.35;11.65;;;11.20;97.20;;;;;;5094880;28;20067;-69
2021/05/16 02:16:12;;;;;;;13.75;11.93;;;11.20;97.20;;;;;;5094611;28;20071;-69
2021/05/16 02:18:37;;;;;;;13.30;11.90;;;11.20;97.30;;;;;;5093914;28;20131;-69
2021/05/16 02:21:05;;;;;;;13.65;12.25;;;11.20;97.30;;;;;;5094028;28;20538;-69
2021/05/16 02:23:31;;;;;;;13.65;11.85;;;11.20;97.30;;;;;;5094040;28;20036;-69
2021/05/16 02:25:57;;;;;;;16.70;13.85;;;11.20;97.40;;;;;;5094017;28;20039;-69
2021/05/16 02:28:22;;;;;;;14.15;12.30;;;11.20;97.40;;;;;;5093970;28;20040;-69
2021/05/16 02:30:49;;;;;;;14.73;12.40;;;11.20;97.50;;;;;;5093662;28;20376;-69
2021/05/16 02:33:14;;;;;;;17.25;12.75;;;11.10;97.40;;;;;;5093815;28;20036;-69
2021/05/16 02:35:40;;;;;;;15.68;13.32;;;11.10;97.70;;;;;;5094331;28;20039;-69
2021/05/16 02:38:06;;;;;;;15.15;12.38;;;11.10;97.50;;;;;;5094431;28;20035;-69
2021/05/16 02:40:33;;;;;;;16.50;13.05;;;11.10;97.50;;;;;;5093352;28;20052;-69
2021/05/16 02:42:59;;;;;;;15.73;13.43;;;11.10;97.50;;;;;;5093800;28;20055;-69
2021/05/16 02:45:25;;;;;;;15.73;12.98;;;11.10;97.50;;;;;;5093784;28;20471;-69
2021/05/16 02:47:51;;;;;;;16.48;13.57;;;11.10;97.50;;;;;;5094077;28;20047;-69
2021/05/16 02:50:17;;;;;;;15.43;13.77;;;11.10;97.60;;;;;;5109037;28;20115;-69
2021/05/16 02:52:43;;;;;;;17.45;13.88;;;11.00;98.00;;;;;;5093650;28;20036;-69
2021/05/16 02:55:09;;;;;;;17.92;13.93;;;11.10;97.70;;;;;;5094229;28;20047;-69
2021/05/16 02:57:35;;;;;;;15.50;13.48;;;11.00;97.80;;;;;;5093575;28;20497;-69
2021/05/16 03:00:02;;;;;;;16.35;13.88;;;11.00;97.80;;;;;;5093314;28;20040;-69
2021/05/16 03:02:28;;;;;;;17.25;14.38;;;11.00;97.90;;;;;;5093547;28;20040;-69
2021/05/16 03:04:54;;;;;;;18.48;14.80;;;11.00;97.80;;;;;;5094040;28;20093;-69
2021/05/16 03:07:19;;;;;;;16.08;14.00;;;11.00;97.90;;;;;;5093280;28;20039;-69
2021/05/16 03:09:45;;;;;;;19.88;15.63;;;11.00;97.90;;;;;;5093731;28;20032;-69
2021/05/16 03:12:11;;;;;;;18.23;15.60;;;11.00;98.00;;;;;;5093705;28;20142;-69
2021/05/16 03:14:37;;;;;;;18.88;15.55;;;10.90;98.00;;;;;;5093665;28;20391;-69
2021/05/16 03:17:03;;;;;;;18.92;15.68;;;11.00;98.10;;;;;;5093461;28;20036;-69
2021/05/16 03:19:28;;;;;;;19.98;15.13;;;10.90;98.00;;;;;;5092898;28;20032;-69
2021/05/16 03:21:55;;;;;;;18.23;15.35;;;11.00;98.10;;;;;;5093228;28;20040;-69
2021/05/16 03:24:21;;;;;;;18.23;16.25;;;11.00;98.20;;;;;;5093152;28;20036;-69
2021/05/16 03:26:47;;;;;;;18.90;15.63;;;11.00;98.20;;;;;;5093795;28;20039;-69
2021/05/16 03:29:13;;;;;;;21.45;16.00;;;11.00;98.10;;;;;;5092919;28;20048;-69
2021/05/16 03:31:39;;;;;;;21.67;16.98;;;11.00;98.20;;;;;;5093251;28;20051;-69
2021/05/16 03:34:07;;;;;;;18.83;15.60;;;11.00;98.20;;;;;;5093416;28;20036;-69
2021/05/16 03:36:32;;;;;;;20.52;16.15;;;11.00;98.20;;;;;;5093341;28;20038;-69
2021/05/16 03:38:58;;;;;;;23.77;17.95;;;11.00;98.20;;;;;;5092857;28;20107;-69
2021/05/16 03:41:24;;;;;;;19.42;16.33;;;11.00;98.20;;;;;;5093022;28;20127;-69
2021/05/16 03:43:50;;;;;;;19.88;17.08;;;11.10;98.30;;;;;;5093085;28;20558;-69
2021/05/16 03:46:19;;;;;;;21.38;16.52;;;11.10;98.30;;;;;;5091991;28;20036;-69
2021/05/16 03:48:44;;;;;;;23.60;18.80;;;11.10;98.20;;;;;;5093149;28;20489;-69
2021/05/16 03:51:13;;;;;;;21.58;16.30;;;11.10;98.30;;;;;;5093183;28;20074;-69
2021/05/16 03:53:39;;;;;;;21.52;17.88;;;11.10;98.30;;;;;;5093014;28;20036;-69
2021/05/16 03:56:07;;;;;;;21.70;17.38;;;11.10;98.30;;;;;;5093082;28;20041;-69
2021/05/16 03:58:33;;;;;;;21.85;16.73;;;11.10;98.30;;;;;;5092957;28;20048;-69
2021/05/16 04:00:59;;;;;;;20.35;16.70;;;11.10;98.30;;;;;;5093315;28;20036;-69
2021/05/16 04:03:25;;;;;;;19.15;16.13;;;11.20;98.30;;;;;;5093500;28;20036;-69
2021/05/16 04:05:51;;;;;;;22.70;17.58;;;11.20;98.20;;;;;;5093624;28;20048;-69
2021/05/16 04:08:16;;;;;;;23.48;18.63;;;11.20;98.30;;;;;;5093093;28;20092;-69
2021/05/16 04:10:42;;;;;;;24.58;19.27;;;11.20;98.30;;;;;;5092480;28;20044;-69
2021/05/16 04:13:07;;;;;;;23.88;18.58;;;11.20;98.20;;;;;;5092847;28;20047;-69
2021/05/16 04:15:33;;;;;;;22.10;18.98;;;11.20;98.30;;;;;;5092822;28;20047;-69
2021/05/16 04:17:59;;;;;;;24.90;18.95;;;11.30;98.20;;;;;;5093549;28;20046;-69
2021/05/16 04:20:25;;;;;;;26.25;20.50;;;11.20;98.30;;;;;;5095946;28;20090;-69
2021/05/16 04:22:50;;;;;;;33.97;22.90;;;11.30;98.20;;;;;;5112178;28;20048;-69
2021/05/16 04:25:16;;;;;;;26.42;21.42;;;11.30;98.20;;;;;;5096532;28;20047;-69
2021/05/16 04:27:42;;;;;;;27.88;20.85;;;11.30;98.20;;;;;;5096810;28;20043;-69
2021/05/16 04:30:08;;;;;;;28.45;20.52;;;11.30;98.20;;;;;;5096224;28;20097;-69
2021/05/16 04:32:33;;;;;;;25.10;19.17;;;11.30;98.10;;;;;;5096101;28;20036;-69
2021/05/16 04:34:59;;;;;;;26.90;20.02;;;11.30;98.10;;;;;;5096185;28;20039;-69
2021/05/16 04:37:25;;;;;;;28.30;20.40;;;11.30;98.10;;;;;;5096754;28;20043;-69
2021/05/16 04:39:51;;;;;;;26.35;20.15;;;11.40;98.10;;;;;;5095780;28;20068;-69
2021/05/16 04:42:17;;;;;;;28.98;20.20;;;11.40;98.00;;;;;;5096075;28;20513;-69
2021/05/16 04:44:43;;;;;;;28.98;20.33;;;11.30;98.10;;;;;;5096257;28;20094;-69
2021/05/16 04:47:09;;;;;;;25.70;20.10;;;11.30;98.00;;;;;;5096129;28;20480;-69
2021/05/16 04:49:35;;;;;;;27.02;20.13;;;11.30;97.90;;;;;;5095551;28;20036;-69
2021/05/16 04:52:02;;;;;;;25.30;19.65;;;11.30;97.90;;;;;;5096832;28;20052;-69
2021/05/16 04:54:29;;;;;;;26.55;19.45;;;11.30;97.90;;;;;;5095895;28;20475;-69
2021/05/16 04:56:54;;;;;;;25.48;20.00;;;11.30;97.90;;;;;;5095879;28;20120;-69
2021/05/16 04:59:20;;;;;;;26.40;18.77;;;11.30;97.80;;;;;;5095625;28;20445;-69
2021/05/16 05:01:47;;;;;;;27.02;18.30;;;11.40;97.90;;;;;;5095566;28;20518;-69
2021/05/16 05:04:13;;;;;;;28.10;19.85;;;11.40;97.80;;;;;;5095653;28;20047;-69
2021/05/16 05:06:39;;;;;;;31.35;20.10;;;11.40;97.70;;;;;;5095699;28;20388;-69
2021/05/16 05:09:05;;;;;;;23.35;17.65;;;11.40;97.70;;;;;;5095259;28;20040;-69
2021/05/16 05:11:34;;;;;;;27.63;18.45;;;11.30;97.70;;;;;;5095419;28;20089;-69
2021/05/16 05:14:00;;;;;;;25.65;18.15;;;11.30;97.70;;;;;;5095932;28;20059;-69
2021/05/16 05:16:26;;;;;;;30.52;18.38;;;11.30;97.60;;;;;;5095421;28;20044;-69
2021/05/16 05:18:52;;;;;;;23.17;15.93;;;11.20;97.60;;;;;;5094948;28;20044;-69
2021/05/16 05:21:18;;;;;;;24.65;16.88;;;11.20;97.50;;;;;;5095269;28;20471;-69
2021/05/16 05:23:43;;;;;;;27.25;17.08;;;11.20;97.60;;;;;;5095687;28;20040;-69
2021/05/16 05:26:09;;;;;;;21.40;15.73;;;11.20;97.70;;;;;;5095578;28;20047;-69
2021/05/16 05:28:35;;;;;;;22.75;16.42;;;11.20;97.70;;;;;;5094857;28;20487;-69
2021/05/16 05:31:01;;;;;;;27.25;16.30;;;11.30;97.70;;;;;;5094881;28;20036;-69
2021/05/16 05:33:26;;;;;;;28.98;17.67;;;11.30;97.50;;;;;;5095060;28;20059;-69
2021/05/16 05:35:53;;;;;;;25.90;16.77;;;11.40;97.40;;;;;;5093941;28;20036;-69
2021/05/16 05:38:20;;;;;;;21.92;15.55;;;11.40;97.20;;;;;;5095385;28;20040;-69
2021/05/16 05:40:46;;;;;;;31.38;18.05;;;11.40;97.10;;;;;;5094477;28;20028;-69
2021/05/16 05:43:12;;;;;;;27.70;18.10;;;11.40;97.10;;;;;;5095040;28;20047;-69
2021/05/16 05:45:38;;;;;;;35.08;21.38;;;11.40;97.10;;;;;;5094840;28;20122;-69
2021/05/16 05:48:04;;;;;;;38.72;21.05;;;11.40;97.20;;;;;;5095393;28;20039;-69
2021/05/16 05:50:30;;;;;;;39.90;22.35;;;11.40;97.40;;;;;;5094470;28;20039;-69
2021/05/16 05:52:59;;;;;;;36.05;22.33;;;11.40;97.40;;;;;;5094710;28;20032;-69
2021/05/16 05:55:25;;;;;;;40.28;22.67;;;11.30;97.40;;;;;;5095051;28;20050;-69
2021/05/16 05:57:51;;;;;;;45.75;25.27;;;11.30;97.60;;;;;;5094678;28;20475;-69
2021/05/16 06:00:17;;;;;;;43.67;24.23;;;11.30;97.70;;;;;;5094096;28;20048;-69
2021/05/16 06:02:42;;;;;;;41.90;24.08;;;11.30;97.70;;;;;;5094534;28;20040;-69
2021/05/16 06:05:08;;;;;;;43.33;23.20;;;11.30;97.50;;;;;;5095017;28;20059;-69
2021/05/16 06:07:35;;;;;;;44.17;24.35;;;11.40;97.50;;;;;;5094997;28;20064;-69
2021/05/16 06:10:01;;;;;;;41.97;23.00;;;11.40;97.50;;;;;;5094103;28;20038;-69
2021/05/16 06:12:27;;;;;;;44.13;25.15;;;11.40;97.50;;;;;;5094491;28;20435;-68
2021/05/16 06:14:54;;;;;;;39.92;23.17;;;11.40;97.50;;;;;;5094891;28;20032;-68
2021/05/16 06:17:20;;;;;;;43.78;24.00;;;11.50;97.60;;;;;;5094906;28;20401;-69
2021/05/16 06:19:45;;;;;;;42.50;24.42;;;11.40;97.50;;;;;;5093907;28;20036;-69
2021/05/16 06:22:14;;;;;;;45.42;24.50;;;11.50;97.70;;;;;;5110095;28;20047;-68
2021/05/16 06:24:40;;;;;;;46.60;25.65;;;11.50;97.80;;;;;;5094116;28;20498;-69
2021/05/16 06:27:06;;;;;;;36.03;22.13;;;11.60;97.70;;;;;;5094102;28;20625;-69
2021/05/16 06:29:32;;;;;;;43.53;23.77;;;11.60;97.60;;;;;;5093885;28;20063;-69
2021/05/16 06:31:58;;;;;;;40.17;23.20;;;11.70;97.60;;;;;;5093870;28;20121;-69
2021/05/16 06:34:23;;;;;;;38.88;22.40;;;11.70;97.60;;;;;;5094128;28;20052;-68
2021/05/16 06:36:49;;;;;;;37.40;21.23;;;11.80;97.70;;;;;;5094362;28;20081;-68
2021/05/16 06:39:14;;;;;;;38.35;21.10;;;11.90;97.60;;;;;;5093833;28;20082;-69
2021/05/16 06:41:40;;;;;;;35.28;22.77;;;12.00;97.40;;;;;;5093516;28;20044;-69
2021/05/16 06:44:06;;;;;;;31.45;19.45;;;12.00;97.30;;;;;;5093825;28;20087;-68
2021/05/16 06:46:32;;;;;;;30.88;19.45;;;12.10;97.20;;;;;;5093878;28;20040;-68
2021/05/16 06:48:58;;;;;;;28.17;19.08;;;12.10;97.20;;;;;;5093372;28;20043;-68
2021/05/16 06:51:24;;;;;;;28.48;18.65;;;12.10;97.10;;;;;;5093724;28;20061;-68
2021/05/16 06:53:50;;;;;;;27.48;18.58;;;12.20;97.10;;;;;;5093851;28;20039;-69
2021/05/16 06:56:16;;;;;;;29.60;17.35;;;12.20;97.00;;;;;;5093598;28;20048;-68
2021/05/16 06:58:42;;;;;;;29.33;17.83;;;12.20;97.50;;;;;;5093222;28;20545;-69
2021/05/16 07:01:09;;;;;;;28.85;19.20;;;12.20;97.60;;;;;;5094131;28;20371;-68
2021/05/16 07:03:35;;;;;;;32.20;18.95;;;12.30;97.80;;;;;;5093493;28;20097;-68
2021/05/16 07:06:01;;;;;;;34.75;19.48;;;12.40;98.00;;;;;;5093593;28;20093;-68
2021/05/16 07:08:27;;;;;;;31.73;17.95;;;12.90;98.20;;;;;;5109511;28;20081;-69
2021/05/16 07:10:54;;;;;;;29.80;17.67;;;13.20;97.80;;;;;;5109248;28;20047;-68
2021/05/16 07:13:20;;;;;;;30.05;19.65;;;13.20;97.40;;;;;;5093494;28;20040;-68
2021/05/16 07:15:46;;;;;;;26.83;17.90;;;13.30;97.10;;;;;;5094092;28;20032;-68
2021/05/16 07:18:12;;;;;;;28.17;18.15;;;13.20;96.90;;;;;;5109387;28;20032;-68
2021/05/16 07:20:40;;;;;;;24.17;17.25;;;13.10;97.00;;;;;;5092954;28;20043;-69
2021/05/16 07:23:05;;;;;;;26.48;16.88;;;13.10;97.00;;;;;;5093266;28;20036;-69
2021/05/16 07:25:31;;;;;;;27.92;17.33;;;13.10;97.20;;;;;;5093406;28;20051;-69
2021/05/16 07:27:58;;;;;;;25.33;16.20;;;13.00;97.20;;;;;;5093387;28;20047;-69
2021/05/16 07:30:24;;;;;;;24.63;16.98;;;13.00;97.00;;;;;;5093038;28;20373;-68
2021/05/16 07:32:50;;;;;;;22.20;15.40;;;13.00;97.10;;;;;;5093145;28;20122;-68
2021/05/16 07:35:17;;;;;;;22.65;16.20;;;13.00;96.90;;;;;;5093532;28;20044;-68
2021/05/16 07:37:43;;;;;;;23.88;15.55;;;13.00;96.90;;;;;;5093799;28;20110;-68
2021/05/16 07:40:10;;;;;;;24.80;15.07;;;13.10;96.80;;;;;;5092733;28;20487;-68
2021/05/16 07:42:36;;;;;;;27.23;15.35;;;13.10;96.70;;;;;;5093126;28;20059;-68
2021/05/16 07:45:02;;;;;;;26.52;14.90;;;13.20;96.60;;;;;;5093256;28;20463;-68
2021/05/16 07:47:28;;;;;;;24.20;15.95;;;13.20;96.40;;;;;;5093028;28;20043;-68
2021/05/16 07:49:54;;;;;;;22.73;15.30;;;13.30;96.20;;;;;;5092741;28;20036;-69
2021/05/16 07:52:19;;;;;;;26.73;14.60;;;13.40;96.10;;;;;;5092951;28;20032;-68
2021/05/16 07:54:45;;;;;;;23.95;15.32;;;13.50;96.00;;;;;;5095800;28;20052;-70
2021/05/16 07:57:11;;;;;;;18.60;13.63;;;13.50;95.70;;;;;;5084383;28;20040;-68
2021/05/16 07:59:38;;;;;;;22.92;14.95;;;13.40;95.50;;;;;;5076200;28;20052;-68
2021/05/16 08:02:04;;;;;;;18.77;13.20;;;13.30;96.20;;;;;;5076753;28;20047;-69
2021/05/16 08:04:30;;;;;;;20.00;13.55;;;13.40;95.70;;;;;;5078164;28;20430;-68
2021/05/16 08:06:56;;;;;;;22.70;14.07;;;13.30;95.70;;;;;;5097060;28;20032;-68
2021/05/16 08:09:23;;;;;;;26.45;16.00;;;13.20;95.80;;;;;;5096114;28;20443;-68
2021/05/16 08:11:49;;;;;;;33.95;18.52;;;13.00;96.20;;;;;;5095363;28;20495;-68
2021/05/16 08:14:15;;;;;;;27.15;14.60;;;12.90;96.50;;;;;;5095504;28;20361;-68
2021/05/16 08:16:41;;;;;;;18.88;12.30;;;12.70;96.50;;;;;;5096661;28;20116;-68
2021/05/16 08:19:08;;;;;;;21.30;10.93;;;12.60;97.30;;;;;;5096205;28;20122;-68
2021/05/16 08:21:35;;;;;;;11.38;6.10;;;12.50;97.50;;;;;;5096285;28;20040;-68
2021/05/16 08:24:01;;;;;;;12.93;6.72;;;12.50;97.50;;;;;;5096943;28;20036;-68
2021/05/16 08:26:27;;;;;;;13.05;8.05;;;12.60;97.70;;;;;;5095798;28;20379;-69
2021/05/16 08:28:53;;;;;;;13.68;8.15;;;12.60;98.20;;;;;;5096062;28;20395;-69
2021/05/16 08:31:18;;;;;;;13.75;9.25;;;12.60;98.10;;;;;;5096097;28;20048;-69
2021/05/16 08:33:44;;;;;;;17.50;9.35;;;12.50;98.20;;;;;;5096808;28;20040;-69
2021/05/16 08:36:09;;;;;;;18.42;9.48;;;12.40;98.10;;;;;;5096103;28;20115;-69
2021/05/16 08:38:35;;;;;;;18.83;10.52;;;12.30;98.60;;;;;;5095854;28;20154;-69
2021/05/16 08:41:01;;;;;;;19.42;10.20;;;12.20;98.60;;;;;;5096007;28;20040;-68
2021/05/16 08:43:27;;;;;;;17.63;10.18;;;12.10;98.80;;;;;;5096598;28;20036;-70
2021/05/16 08:45:54;;;;;;;15.63;10.95;;;12.00;98.90;;;;;;5096201;28;20032;-69
2021/05/16 08:48:19;;;;;;;17.52;10.23;;;12.00;99.10;;;;;;5095859;28;20120;-69
2021/05/16 08:50:46;;;;;;;18.23;10.88;;;12.10;99.30;;;;;;5095491;28;20063;-69
2021/05/16 08:53:12;;;;;;;16.20;9.88;;;12.20;99.40;;;;;;5095107;28;20040;-68
2021/05/16 08:55:37;;;;;;;19.67;10.05;;;12.30;99.40;;;;;;5096556;28;20032;-68
2021/05/16 08:58:04;;;;;;;18.73;9.85;;;12.40;99.20;;;;;;5096228;28;20044;-69
2021/05/16 09:00:32;;;;;;;18.10;10.60;;;12.50;99.20;;;;;;5094430;28;20039;-70
2021/05/16 09:03:05;;;;;;;17.65;10.85;;;12.50;99.10;;;;;;5095733;28;20048;-69
2021/05/16 09:05:50;;;;;;;17.13;10.75;;;12.60;98.90;;;;;;5095541;28;20115;-69
2021/05/16 09:08:24;;;;;;;19.83;10.20;;;12.60;99.00;;;;;;5095537;28;20423;-69
2021/05/16 09:10:58;;;;;;;17.67;9.48;;;12.60;98.90;;;;;;5095326;28;20036;-69
2021/05/16 09:13:29;;;;;;;15.73;9.05;;;12.50;98.70;;;;;;5095759;28;20035;-69
2021/05/16 09:16:15;;;;;;;14.10;8.82;;;12.40;98.60;;;;;;5095825;28;20405;-70
2021/05/16 09:18:52;;;;;;;20.80;9.98;;;12.30;98.50;;;;;;5095716;28;20044;-70
2021/05/16 09:21:28;;;;;;;11.68;7.85;;;12.20;98.90;;;;;;5095192;28;20082;-70
2021/05/16 09:24:00;;;;;;;5.80;3.60;;;12.10;99.10;;;;;;5095387;28;20036;-70
2021/05/16 09:26:35;;;;;;;5.88;2.90;;;12.10;98.80;;;;;;5095180;28;20394;-70
2021/05/16 09:29:18;;;;;;;7.35;3.25;;;12.00;98.80;;;;;;5093740;28;20040;-69
2021/05/16 09:31:44;;;;;;;5.28;3.42;;;12.00;99.10;;;;;;5095758;28;20115;-70
2021/05/16 09:34:12;;;;;;;9.70;4.00;;;11.90;99.10;;;;;;5094825;28;20414;-71
2021/05/16 09:36:40;;;;;;;8.38;4.10;;;11.80;99.20;;;;;;5095291;28;20063;-69
2021/05/16 09:39:25;;;;;;;7.78;3.92;;;11.80;98.90;;;;;;5095038;28;20431;-69
2021/05/16 09:41:58;;;;;;;9.70;4.47;;;11.80;99.10;;;;;;5094776;28;20028;-70
2021/05/16 09:44:32;;;;;;;8.45;4.00;;;11.80;99.30;;;;;;5094992;28;20044;-69
2021/05/16 09:47:07;;;;;;;10.85;4.05;;;11.70;99.20;;;;;;5094932;28;20168;-69
2021/05/16 09:49:33;;;;;;;7.75;4.47;;;11.70;99.20;;;;;;5094310;28;21430;-69
2021/05/16 09:52:14;;;;;;;6.63;4.35;;;11.70;99.40;;;;;;5094656;28;20123;-69
2021/05/16 09:55:00;;;;;;;9.60;4.90;;;11.70;99.70;;;;;;5094686;28;20065;-69
2021/05/16 09:57:27;;;;;;;8.95;6.22;;;11.70;99.80;;;;;;5094957;28;20468;-69
2021/05/16 09:59:57;;;;;;;11.85;6.85;;;11.90;99.80;;;;;;5094072;28;20066;-69
2021/05/16 10:02:26;;;;;;;9.98;6.97;;;12.00;99.90;;;;;;5095102;28;20048;-69
2021/05/16 10:04:53;;;;;;;10.88;8.05;;;12.10;99.70;;;;;;5094371;28;20039;-70
2021/05/16 10:07:21;;;;;;;13.40;7.53;;;12.20;99.90;;;;;;5093210;28;20040;-69
2021/05/16 10:09:47;;;;;;;15.20;7.97;;;12.30;99.90;;;;;;5093991;28;20043;-69
2021/05/16 10:12:14;;;;;;;15.80;8.00;;;12.40;99.90;;;;;;5095098;28;20060;-69
2021/05/16 10:14:45;;;;;;;12.93;7.35;;;12.60;99.90;;;;;;5094468;28;20032;-69
2021/05/16 10:17:12;;;;;;;11.40;7.10;;;12.60;99.80;;;;;;5093503;28;20040;-70
2021/05/16 10:19:40;;;;;;;11.85;8.00;;;12.70;99.70;;;;;;5094007;28;20043;-70
2021/05/16 10:22:13;;;;;;;13.23;9.23;;;12.80;99.60;;;;;;5094453;28;20093;-69
2021/05/16 10:24:50;;;;;;;15.07;9.05;;;13.30;99.90;;;;;;5094635;28;20049;-69
2021/05/16 10:27:22;;;;;;;12.90;8.73;;;13.60;99.90;;;;;;5094072;28;20043;-69
2021/05/16 10:29:54;;;;;;;15.43;9.05;;;13.70;99.30;;;;;;5093564;28;20123;-70
2021/05/16 10:32:35;;;;;;;8.43;5.65;;;13.90;99.00;;;;;;5094037;28;20041;-70
2021/05/16 10:35:05;;;;;;;9.75;6.18;;;13.80;97.90;;;;;;5093328;28;20032;-70
2021/05/16 10:37:38;;;;;;;8.63;5.70;;;14.10;98.00;;;;;;5093808;28;20036;-70
2021/05/16 10:40:24;;;;;;;6.90;4.55;;;14.30;98.40;;;;;;5093499;28;20047;-70
2021/05/16 10:43:02;;;;;;;6.25;4.68;;;14.50;96.40;;;;;;5094045;28;20047;-69
2021/05/16 10:45:37;;;;;;;6.78;4.88;;;14.60;97.50;;;;;;5093839;28;20032;-70
2021/05/16 10:48:06;;;;;;;8.60;5.63;;;14.70;96.30;;;;;;5093680;28;20032;-69
2021/05/16 10:50:37;;;;;;;9.80;4.57;;;14.90;97.10;;;;;;5093269;28;20122;-70
2021/05/16 10:53:17;;;;;;;5.15;3.85;;;14.70;96.10;;;;;;5093862;28;20064;-69
2021/05/16 10:55:49;;;;;;;5.28;3.35;;;14.70;95.50;;;;;;5094126;28;20047;-70
2021/05/16 10:58:33;;;;;;;3.00;2.63;;;15.00;96.50;;;;;;5093985;28;20055;-70
2021/05/16 11:01:30;;;;;;;4.68;3.40;;;14.90;94.20;;;;;;5093464;28;20086;-69
2021/05/16 11:03:57;;;;;;;8.27;3.78;;;14.70;94.70;;;;;;5093440;28;20036;-69
2021/05/16 11:06:31;;;;;;;7.72;3.28;;;14.50;95.20;;;;;;5093667;28;20090;-70
2021/05/16 11:09:00;;;;;;;4.72;3.28;;;14.30;94.80;;;;;;5093745;28;20051;-69
2021/05/16 11:11:34;;;;;;;4.10;1.75;;;14.70;95.90;;;;;;5093279;28;20040;-70
2021/05/16 11:14:19;;;;;;;4.18;1.40;;;14.60;94.90;;;;;;5093467;28;20430;-70
2021/05/16 11:16:52;;;;;;;3.30;1.15;;;14.60;94.70;;;;;;5093467;28;20036;-69
2021/05/16 11:19:26;;;;;;;4.22;1.60;;;14.40;94.30;;;;;;5093447;28;20131;-70
2021/05/16 11:21:53;;;;;;;3.15;2.20;;;14.10;95.00;;;;;;5093379;28;20083;-70
2021/05/16 11:24:45;;;;;;;5.82;3.47;;;14.00;94.90;;;;;;5093293;28;20067;-70
2021/05/16 11:27:18;;;;;;;5.22;2.58;;;13.90;95.20;;;;;;5094032;28;20105;-69
2021/05/16 11:29:44;;;;;;;7.28;2.92;;;14.00;95.60;;;;;;5097457;28;20068;-72
2021/05/16 11:32:10;;;;;;;5.35;2.60;;;14.00;95.30;;;;;;5096151;28;20044;-69
2021/05/16 11:34:35;;;;;;;4.05;2.13;;;14.10;95.40;;;;;;5097475;28;20032;-70
2021/05/16 11:37:15;;;;;;;3.28;2.30;;;14.10;95.70;;;;;;5097614;28;20036;-71
2021/05/16 11:39:41;;;;;;;7.13;2.60;;;14.10;95.90;;;;;;5096906;28;20035;-69
2021/05/16 11:42:07;;;;;;;4.72;2.72;;;14.10;96.00;;;;;;5097851;28;20043;-70
2021/05/16 11:44:34;;;;;;;5.57;2.85;;;14.10;95.70;;;;;;5096077;28;20051;-70
2021/05/16 11:46:59;;;;;;;4.78;2.35;;;14.10;96.10;;;;;;5097532;28;20066;-70
2021/05/16 11:49:27;;;;;;;2.85;1.17;;;14.00;95.80;;;;;;5096626;28;20036;-69
2021/05/16 11:52:03;;;;;;;1.95;0.93;;;13.60;93.60;;;;;;5097655;28;20433;-70
2021/05/16 11:54:38;;;;;;;2.05;0.80;;;13.30;92.90;;;;;;5096872;28;20032;-71
2021/05/16 11:57:04;;;;;;;1.98;0.80;;;13.00;93.80;;;;;;5096937;28;20047;-69
2021/05/16 11:59:30;;;;;;;3.63;1.10;;;12.70;94.30;;;;;;5096582;28;20038;-70
2021/05/16 12:02:03;;;;;;;2.90;0.70;;;12.60;94.30;;;;;;5096893;28;20065;-70
2021/05/16 12:04:38;;;;;;;1.55;0.82;;;12.50;94.30;;;;;;5097002;28;20124;-70
2021/05/16 12:07:04;;;;;;;1.67;0.80;;;12.50;94.20;;;;;;5097383;28;20085;-70
2021/05/16 12:09:38;;;;;;;2.95;1.20;;;12.50;94.30;;;;;;5096337;28;20032;-70
2021/05/16 12:12:15;;;;;;;1.88;0.73;;;12.50;94.50;;;;;;5096719;28;20436;-70
2021/05/16 12:14:43;;;;;;;3.20;1.08;;;12.50;94.90;;;;;;5096694;28;20093;-70
2021/05/16 12:17:09;;;;;;;2.88;1.17;;;12.40;95.70;;;;;;5096714;28;20063;-70
2021/05/16 12:19:37;;;;;;;3.83;1.38;;;12.40;95.70;;;;;;5096291;28;20084;-70
2021/05/16 12:22:12;;;;;;;3.47;1.20;;;12.50;96.20;;;;;;5096867;28;20074;-70
2021/05/16 12:24:45;;;;;;;4.70;1.17;;;12.60;96.30;;;;;;5096519;28;20475;-70
2021/05/16 12:27:17;;;;;;;4.80;1.98;;;12.70;96.00;;;;;;5097031;28;20036;-70
2021/05/16 12:29:44;;;;;;;3.10;1.60;;;12.80;96.00;;;;;;5096161;28;20043;-70
2021/05/16 12:32:11;;;;;;;3.97;1.52;;;12.90;95.70;;;;;;5096009;28;20044;-70
2021/05/16 12:34:38;;;;;;;2.55;1.55;;;13.20;95.70;;;;;;5096701;28;20048;-69
2021/05/16 12:37:15;;;;;;;5.22;1.98;;;13.50;96.90;;;;;;5096543;28;20040;-69